sensor_id;sensor_type;location;lat;lon;timestamp;P1;durP1;ratioP1;P2;durP2;ratioP2
48014;SDS011;33780;51.034;7.120;2023-04-01T00:01:02;1.75;;;0.20;;
48014;SDS011;33780;51.034;7.120;2023-04-01T00:03:28;0.90;;;0.20;;
48014;SDS011;33780;51.034;7.120;2023-04-01T00:05:54;0.47;;;0.20;;
48014;SDS011;33780;51.034;7.120;2023-04-01T00:08:21;1.75;;;0.20;;
48014;SDS011;33780;51.034;7.120;2023-04-01T00:10:46;0.38;;;0.10;;
48014;SDS011;33780;51.034;7.120;2023-04-01T00:13:12;0.63;;;0.20;;
48014;SDS011;33780;51.034;7.120;2023-04-01T00:15:38;0.60;;;0.20;;
48014;SDS011;33780;51.034;7.120;2023-04-01T00:18:05;1.45;;;0.13;;
48014;SDS011;33780;51.034;7.120;2023-04-01T00:20:31;0.98;;;0.20;;
48014;SDS011;33780;51.034;7.120;2023-04-01T00:22:56;0.20;;;0.10;;
48014;SDS011;33780;51.034;7.120;2023-04-01T00:25:22;1.60;;;0.20;;
48014;SDS011;33780;51.034;7.120;2023-04-01T00:27:47;1.30;;;0.10;;
48014;SDS011;33780;51.034;7.120;2023-04-01T00:30:14;2.13;;;0.30;;
48014;SDS011;33780;51.034;7.120;2023-04-01T00:32:40;0.40;;;0.20;;
48014;SDS011;33780;51.034;7.120;2023-04-01T00:35:05;0.50;;;0.20;;
48014;SDS011;33780;51.034;7.120;2023-04-01T00:37:31;1.42;;;0.17;;
48014;SDS011;33780;51.034;7.120;2023-04-01T00:40:00;1.52;;;0.10;;
48014;SDS011;33780;51.034;7.120;2023-04-01T00:42:25;0.00;;;0.00;;
48014;SDS011;33780;51.034;7.120;2023-04-01T00:44:51;0.22;;;0.20;;
48014;SDS011;33780;51.034;7.120;2023-04-01T00:47:18;1.38;;;0.10;;
48014;SDS011;33780;51.034;7.120;2023-04-01T00:49:45;1.00;;;0.30;;
48014;SDS011;33780;51.034;7.120;2023-04-01T00:52:15;0.10;;;0.00;;
48014;SDS011;33780;51.034;7.120;2023-04-01T00:54:45;0.15;;;0.05;;
48014;SDS011;33780;51.034;7.120;2023-04-01T00:57:21;0.50;;;0.30;;
48014;SDS011;33780;51.034;7.120;2023-04-01T01:00:09;2.08;;;0.20;;
48014;SDS011;33780;51.034;7.120;2023-04-01T01:02:37;1.95;;;0.13;;
48014;SDS011;33780;51.034;7.120;2023-04-01T01:05:03;0.10;;;0.05;;
48014;SDS011;33780;51.034;7.120;2023-04-01T01:07:35;0.30;;;0.10;;
48014;SDS011;33780;51.034;7.120;2023-04-01T01:13:24;0.00;;;0.00;;
48014;SDS011;33780;51.034;7.120;2023-04-01T01:15:58;0.70;;;0.20;;
48014;SDS011;33780;51.034;7.120;2023-04-01T01:21:21;0.50;;;0.10;;
48014;SDS011;33780;51.034;7.120;2023-04-01T01:24:13;0.63;;;0.20;;
48014;SDS011;33780;51.034;7.120;2023-04-01T01:27:00;0.65;;;0.10;;
48014;SDS011;33780;51.034;7.120;2023-04-01T01:35:36;1.13;;;0.15;;
48014;SDS011;33780;51.034;7.120;2023-04-01T01:38:07;0.50;;;0.10;;
48014;SDS011;33780;51.034;7.120;2023-04-01T01:40:36;0.05;;;0.00;;
48014;SDS011;33780;51.034;7.120;2023-04-01T01:43:05;2.80;;;0.20;;
48014;SDS011;33780;51.034;7.120;2023-04-01T01:45:35;0.10;;;0.00;;
48014;SDS011;33780;51.034;7.120;2023-04-01T01:48:05;0.43;;;0.25;;
48014;SDS011;33780;51.034;7.120;2023-04-01T01:50:34;0.82;;;0.15;;
48014;SDS011;33780;51.034;7.120;2023-04-01T01:53:04;0.73;;;0.15;;
48014;SDS011;33780;51.034;7.120;2023-04-01T01:55:33;0.00;;;0.00;;
48014;SDS011;33780;51.034;7.120;2023-04-01T01:58:02;0.55;;;0.17;;
48014;SDS011;33780;51.034;7.120;2023-04-01T02:00:34;0.03;;;0.00;;
48014;SDS011;33780;51.034;7.120;2023-04-01T02:03:01;0.35;;;0.08;;
48014;SDS011;33780;51.034;7.120;2023-04-01T02:05:27;0.10;;;0.00;;
48014;SDS011;33780;51.034;7.120;2023-04-01T02:07:57;1.08;;;0.10;;
48014;SDS011;33780;51.034;7.120;2023-04-01T02:10:28;0.10;;;0.00;;
48014;SDS011;33780;51.034;7.120;2023-04-01T02:12:57;0.30;;;0.20;;
48014;SDS011;33780;51.034;7.120;2023-04-01T02:15:28;0.63;;;0.30;;
48014;SDS011;33780;51.034;7.120;2023-04-01T02:17:59;0.28;;;0.10;;
48014;SDS011;33780;51.034;7.120;2023-04-01T02:20:25;0.95;;;0.15;;
48014;SDS011;33780;51.034;7.120;2023-04-01T02:22:54;0.13;;;0.05;;
48014;SDS011;33780;51.034;7.120;2023-04-01T02:25:26;0.10;;;0.00;;
48014;SDS011;33780;51.034;7.120;2023-04-01T02:27:53;0.52;;;0.10;;
48014;SDS011;33780;51.034;7.120;2023-04-01T02:30:21;0.15;;;0.08;;
48014;SDS011;33780;51.034;7.120;2023-04-01T02:32:46;0.50;;;0.13;;
48014;SDS011;33780;51.034;7.120;2023-04-01T02:35:14;0.80;;;0.20;;
48014;SDS011;33780;51.034;7.120;2023-04-01T02:37:41;0.40;;;0.10;;
48014;SDS011;33780;51.034;7.120;2023-04-01T02:40:09;0.17;;;0.08;;
48014;SDS011;33780;51.034;7.120;2023-04-01T02:42:37;1.48;;;0.10;;
48014;SDS011;33780;51.034;7.120;2023-04-01T02:45:03;0.20;;;0.10;;
48014;SDS011;33780;51.034;7.120;2023-04-01T02:47:29;1.15;;;0.25;;
48014;SDS011;33780;51.034;7.120;2023-04-01T02:49:54;1.60;;;0.30;;
48014;SDS011;33780;51.034;7.120;2023-04-01T02:52:23;0.75;;;0.25;;
48014;SDS011;33780;51.034;7.120;2023-04-01T02:54:53;0.43;;;0.17;;
48014;SDS011;33780;51.034;7.120;2023-04-01T02:57:18;1.15;;;0.20;;
48014;SDS011;33780;51.034;7.120;2023-04-01T02:59:44;0.68;;;0.20;;
48014;SDS011;33780;51.034;7.120;2023-04-01T03:02:09;1.00;;;0.20;;
48014;SDS011;33780;51.034;7.120;2023-04-01T03:04:34;1.00;;;0.15;;
48014;SDS011;33780;51.034;7.120;2023-04-01T03:07:00;0.25;;;0.20;;
48014;SDS011;33780;51.034;7.120;2023-04-01T03:09:25;0.00;;;0.00;;
48014;SDS011;33780;51.034;7.120;2023-04-01T03:11:50;0.77;;;0.20;;
48014;SDS011;33780;51.034;7.120;2023-04-01T03:14:16;0.25;;;0.10;;
48014;SDS011;33780;51.034;7.120;2023-04-01T03:16:41;0.45;;;0.10;;
48014;SDS011;33780;51.034;7.120;2023-04-01T03:19:06;0.20;;;0.10;;
48014;SDS011;33780;51.034;7.120;2023-04-01T03:21:32;0.52;;;0.10;;
48014;SDS011;33780;51.034;7.120;2023-04-01T03:23:57;0.95;;;0.10;;
48014;SDS011;33780;51.034;7.120;2023-04-01T03:26:23;0.73;;;0.10;;
48014;SDS011;33780;51.034;7.120;2023-04-01T03:28:49;0.43;;;0.15;;
48014;SDS011;33780;51.034;7.120;2023-04-01T03:31:14;0.75;;;0.15;;
48014;SDS011;33780;51.034;7.120;2023-04-01T03:33:41;0.10;;;0.10;;
48014;SDS011;33780;51.034;7.120;2023-04-01T03:36:06;1.48;;;0.20;;
48014;SDS011;33780;51.034;7.120;2023-04-01T03:38:33;0.43;;;0.10;;
48014;SDS011;33780;51.034;7.120;2023-04-01T03:40:59;0.45;;;0.10;;
48014;SDS011;33780;51.034;7.120;2023-04-01T03:43:24;0.00;;;0.00;;
48014;SDS011;33780;51.034;7.120;2023-04-01T03:45:51;0.08;;;0.00;;
48014;SDS011;33780;51.034;7.120;2023-04-01T03:48:17;0.90;;;0.17;;
48014;SDS011;33780;51.034;7.120;2023-04-01T03:50:43;0.10;;;0.00;;
48014;SDS011;33780;51.034;7.120;2023-04-01T03:53:09;0.30;;;0.10;;
48014;SDS011;33780;51.034;7.120;2023-04-01T03:55:35;0.15;;;0.10;;
48014;SDS011;33780;51.034;7.120;2023-04-01T03:58:00;0.15;;;0.10;;
48014;SDS011;33780;51.034;7.120;2023-04-01T04:00:27;0.20;;;0.10;;
48014;SDS011;33780;51.034;7.120;2023-04-01T04:02:53;1.35;;;0.00;;
48014;SDS011;33780;51.034;7.120;2023-04-01T04:05:20;0.10;;;0.00;;
48014;SDS011;33780;51.034;7.120;2023-04-01T04:07:45;0.20;;;0.17;;
48014;SDS011;33780;51.034;7.120;2023-04-01T04:10:11;0.10;;;0.10;;
48014;SDS011;33780;51.034;7.120;2023-04-01T04:12:36;0.17;;;0.10;;
48014;SDS011;33780;51.034;7.120;2023-04-01T04:15:01;0.20;;;0.10;;
48014;SDS011;33780;51.034;7.120;2023-04-01T04:17:27;0.15;;;0.08;;
48014;SDS011;33780;51.034;7.120;2023-04-01T04:19:54;0.43;;;0.10;;
48014;SDS011;33780;51.034;7.120;2023-04-01T04:22:20;0.63;;;0.17;;
48014;SDS011;33780;51.034;7.120;2023-04-01T04:24:45;0.20;;;0.10;;
48014;SDS011;33780;51.034;7.120;2023-04-01T04:27:10;0.15;;;0.08;;
48014;SDS011;33780;51.034;7.120;2023-04-01T04:29:36;0.77;;;0.20;;
48014;SDS011;33780;51.034;7.120;2023-04-01T04:32:01;0.05;;;0.05;;
48014;SDS011;33780;51.034;7.120;2023-04-01T04:34:27;0.43;;;0.20;;
48014;SDS011;33780;51.034;7.120;2023-04-01T04:36:52;0.30;;;0.10;;
48014;SDS011;33780;51.034;7.120;2023-04-01T04:39:17;0.25;;;0.10;;
48014;SDS011;33780;51.034;7.120;2023-04-01T04:41:43;1.00;;;0.20;;
48014;SDS011;33780;51.034;7.120;2023-04-01T04:44:08;0.10;;;0.00;;
48014;SDS011;33780;51.034;7.120;2023-04-01T04:46:33;0.32;;;0.10;;
48014;SDS011;33780;51.034;7.120;2023-04-01T04:48:58;0.13;;;0.00;;
48014;SDS011;33780;51.034;7.120;2023-04-01T04:51:24;0.98;;;0.10;;
48014;SDS011;33780;51.034;7.120;2023-04-01T04:53:50;0.38;;;0.20;;
48014;SDS011;33780;51.034;7.120;2023-04-01T04:56:19;3.80;;;2.20;;
48014;SDS011;33780;51.034;7.120;2023-04-01T04:58:46;4.05;;;1.40;;
48014;SDS011;33780;51.034;7.120;2023-04-01T05:01:13;0.40;;;0.20;;
48014;SDS011;33780;51.034;7.120;2023-04-01T05:03:39;2.60;;;0.22;;
48014;SDS011;33780;51.034;7.120;2023-04-01T05:06:06;3.50;;;0.10;;
48014;SDS011;33780;51.034;7.120;2023-04-01T05:08:32;0.30;;;0.10;;
48014;SDS011;33780;51.034;7.120;2023-04-01T05:10:58;0.35;;;0.10;;
48014;SDS011;33780;51.034;7.120;2023-04-01T05:13:23;0.55;;;0.20;;
48014;SDS011;33780;51.034;7.120;2023-04-01T05:15:49;0.75;;;0.20;;
48014;SDS011;33780;51.034;7.120;2023-04-01T05:18:14;0.38;;;0.10;;
48014;SDS011;33780;51.034;7.120;2023-04-01T05:20:45;0.88;;;0.30;;
48014;SDS011;33780;51.034;7.120;2023-04-01T05:23:12;0.17;;;0.10;;
48014;SDS011;33780;51.034;7.120;2023-04-01T05:25:37;0.28;;;0.10;;
48014;SDS011;33780;51.034;7.120;2023-04-01T05:28:03;0.17;;;0.10;;
48014;SDS011;33780;51.034;7.120;2023-04-01T05:30:28;0.30;;;0.10;;
48014;SDS011;33780;51.034;7.120;2023-04-01T05:32:53;0.32;;;0.10;;
48014;SDS011;33780;51.034;7.120;2023-04-01T05:35:19;0.47;;;0.10;;
48014;SDS011;33780;51.034;7.120;2023-04-01T05:37:44;0.17;;;0.10;;
48014;SDS011;33780;51.034;7.120;2023-04-01T05:40:09;0.40;;;0.20;;
48014;SDS011;33780;51.034;7.120;2023-04-01T05:42:35;0.57;;;0.25;;
48014;SDS011;33780;51.034;7.120;2023-04-01T05:45:00;0.30;;;0.13;;
48014;SDS011;33780;51.034;7.120;2023-04-01T05:47:26;0.65;;;0.10;;
48014;SDS011;33780;51.034;7.120;2023-04-01T05:49:51;0.28;;;0.10;;
48014;SDS011;33780;51.034;7.120;2023-04-01T05:52:16;0.20;;;0.10;;
48014;SDS011;33780;51.034;7.120;2023-04-01T05:54:41;0.30;;;0.10;;
48014;SDS011;33780;51.034;7.120;2023-04-01T05:57:07;0.40;;;0.10;;
48014;SDS011;33780;51.034;7.120;2023-04-01T05:59:32;0.60;;;0.20;;
48014;SDS011;33780;51.034;7.120;2023-04-01T06:01:57;0.40;;;0.20;;
48014;SDS011;33780;51.034;7.120;2023-04-01T06:04:22;0.50;;;0.20;;
48014;SDS011;33780;51.034;7.120;2023-04-01T06:06:48;0.28;;;0.10;;
48014;SDS011;33780;51.034;7.120;2023-04-01T06:09:14;0.28;;;0.10;;
48014;SDS011;33780;51.034;7.120;2023-04-01T06:20:30;0.82;;;0.30;;
48014;SDS011;33780;51.034;7.120;2023-04-01T06:23:20;0.50;;;0.20;;
48014;SDS011;33780;51.034;7.120;2023-04-01T06:29:03;1.20;;;0.20;;
48014;SDS011;33780;51.034;7.120;2023-04-01T06:34:34;0.73;;;0.22;;
48014;SDS011;33780;51.034;7.120;2023-04-01T06:43:21;0.50;;;0.20;;
48014;SDS011;33780;51.034;7.120;2023-04-01T06:48:45;0.50;;;0.30;;
48014;SDS011;33780;51.034;7.120;2023-04-01T06:51:42;1.17;;;0.35;;
48014;SDS011;33780;51.034;7.120;2023-04-01T06:54:31;1.13;;;0.30;;
48014;SDS011;33780;51.034;7.120;2023-04-01T07:00:03;0.45;;;0.20;;
48014;SDS011;33780;51.034;7.120;2023-04-01T07:02:45;1.42;;;0.30;;
48014;SDS011;33780;51.034;7.120;2023-04-01T07:05:12;1.08;;;0.30;;
48014;SDS011;33780;51.034;7.120;2023-04-01T07:10:12;0.30;;;0.10;;
48014;SDS011;33780;51.034;7.120;2023-04-01T07:15:18;0.60;;;0.30;;
48014;SDS011;33780;51.034;7.120;2023-04-01T07:17:46;0.63;;;0.30;;
48014;SDS011;33780;51.034;7.120;2023-04-01T07:23:02;0.95;;;0.40;;
48014;SDS011;33780;51.034;7.120;2023-04-01T07:28:20;0.60;;;0.30;;
48014;SDS011;33780;51.034;7.120;2023-04-01T07:44:21;1.52;;;0.50;;
48014;SDS011;33780;51.034;7.120;2023-04-01T07:49:52;1.05;;;0.32;;
48014;SDS011;33780;51.034;7.120;2023-04-01T07:55:29;1.08;;;0.30;;
48014;SDS011;33780;51.034;7.120;2023-04-01T07:58:37;0.60;;;0.20;;
48014;SDS011;33780;51.034;7.120;2023-04-01T08:01:15;1.02;;;0.40;;
48014;SDS011;33780;51.034;7.120;2023-04-01T08:04:06;0.98;;;0.40;;
48014;SDS011;33780;51.034;7.120;2023-04-01T08:07:17;1.40;;;0.50;;
48014;SDS011;33780;51.034;7.120;2023-04-01T08:12:40;0.80;;;0.38;;
48014;SDS011;33780;51.034;7.120;2023-04-01T08:15:10;1.20;;;0.50;;
48014;SDS011;33780;51.034;7.120;2023-04-01T08:17:56;0.80;;;0.40;;
48014;SDS011;33780;51.034;7.120;2023-04-01T08:23:27;0.85;;;0.40;;
48014;SDS011;33780;51.034;7.120;2023-04-01T08:25:57;1.00;;;0.30;;
48014;SDS011;33780;51.034;7.120;2023-04-01T08:28:43;0.65;;;0.38;;
48014;SDS011;33780;51.034;7.120;2023-04-01T08:31:20;0.50;;;0.25;;
48014;SDS011;33780;51.034;7.120;2023-04-01T08:33:54;0.93;;;0.40;;
48014;SDS011;33780;51.034;7.120;2023-04-01T08:39:04;1.38;;;0.50;;
48014;SDS011;33780;51.034;7.120;2023-04-01T08:47:30;1.20;;;0.47;;
48014;SDS011;33780;51.034;7.120;2023-04-01T08:53:00;0.60;;;0.30;;
48014;SDS011;33780;51.034;7.120;2023-04-01T08:58:31;0.70;;;0.38;;
48014;SDS011;33780;51.034;7.120;2023-04-01T09:28:30;1.25;;;0.60;;
48014;SDS011;33780;51.034;7.120;2023-04-01T09:31:20;1.40;;;0.68;;
48014;SDS011;33780;51.034;7.120;2023-04-01T09:36:33;1.73;;;0.70;;
48014;SDS011;33780;51.034;7.120;2023-04-01T09:44:34;0.65;;;0.30;;
48014;SDS011;33780;51.034;7.120;2023-04-01T09:47:16;1.13;;;0.47;;
48014;SDS011;33780;51.034;7.120;2023-04-01T09:53:33;1.60;;;0.73;;
48014;SDS011;33780;51.034;7.120;2023-04-01T10:16:28;1.50;;;0.70;;
48014;SDS011;33780;51.034;7.120;2023-04-01T10:49:59;1.63;;;0.68;;
48014;SDS011;33780;51.034;7.120;2023-04-01T11:01:27;0.98;;;0.52;;
48014;SDS011;33780;51.034;7.120;2023-04-01T11:32:02;1.63;;;0.82;;
48014;SDS011;33780;51.034;7.120;2023-04-01T11:37:54;3.22;;;1.30;;
48014;SDS011;33780;51.034;7.120;2023-04-01T11:43:34;1.45;;;0.65;;
48014;SDS011;33780;51.034;7.120;2023-04-01T11:54:35;6.18;;;1.80;;
48014;SDS011;33780;51.034;7.120;2023-04-01T11:57:28;4.85;;;1.65;;
48014;SDS011;33780;51.034;7.120;2023-04-01T12:06:33;1.75;;;0.90;;
48014;SDS011;33780;51.034;7.120;2023-04-01T12:31:50;2.47;;;1.10;;
48014;SDS011;33780;51.034;7.120;2023-04-01T12:34:51;1.83;;;0.98;;
48014;SDS011;33780;51.034;7.120;2023-04-01T12:43:13;1.45;;;0.80;;
48014;SDS011;33780;51.034;7.120;2023-04-01T12:49:01;1.92;;;0.98;;
48014;SDS011;33780;51.034;7.120;2023-04-01T12:51:38;2.85;;;1.13;;
48014;SDS011;33780;51.034;7.120;2023-04-01T12:57:17;1.92;;;0.90;;
48014;SDS011;33780;51.034;7.120;2023-04-01T13:03:16;1.88;;;0.90;;
48014;SDS011;33780;51.034;7.120;2023-04-01T13:06:16;1.45;;;0.77;;
48014;SDS011;33780;51.034;7.120;2023-04-01T13:15:05;1.63;;;0.88;;
48014;SDS011;33780;51.034;7.120;2023-04-01T13:25:44;2.15;;;0.90;;
48014;SDS011;33780;51.034;7.120;2023-04-01T13:28:17;2.15;;;1.10;;
48014;SDS011;33780;51.034;7.120;2023-04-01T13:44:44;1.58;;;0.90;;
48014;SDS011;33780;51.034;7.120;2023-04-01T13:47:40;1.15;;;0.63;;
48014;SDS011;33780;51.034;7.120;2023-04-01T13:53:00;1.55;;;0.80;;
48014;SDS011;33780;51.034;7.120;2023-04-01T13:58:43;2.65;;;1.25;;
48014;SDS011;33780;51.034;7.120;2023-04-01T14:01:25;2.38;;;1.27;;
48014;SDS011;33780;51.034;7.120;2023-04-01T14:04:03;2.63;;;1.23;;
48014;SDS011;33780;51.034;7.120;2023-04-01T14:06:44;2.47;;;1.40;;
48014;SDS011;33780;51.034;7.120;2023-04-01T14:17:17;2.75;;;1.38;;
48014;SDS011;33780;51.034;7.120;2023-04-01T14:20:18;6.13;;;1.20;;
48014;SDS011;33780;51.034;7.120;2023-04-01T14:28:13;2.30;;;1.40;;
48014;SDS011;33780;51.034;7.120;2023-04-01T14:36:49;5.32;;;2.00;;
48014;SDS011;33780;51.034;7.120;2023-04-01T14:39:33;3.40;;;1.83;;
48014;SDS011;33780;51.034;7.120;2023-04-01T14:47:53;3.33;;;1.83;;
48014;SDS011;33780;51.034;7.120;2023-04-01T14:50:23;3.45;;;1.77;;
48014;SDS011;33780;51.034;7.120;2023-04-01T14:52:55;3.53;;;1.80;;
48014;SDS011;33780;51.034;7.120;2023-04-01T14:55:28;2.40;;;1.30;;
48014;SDS011;33780;51.034;7.120;2023-04-01T14:58:00;3.33;;;1.55;;
48014;SDS011;33780;51.034;7.120;2023-04-01T15:09:23;1.98;;;1.13;;
48014;SDS011;33780;51.034;7.120;2023-04-01T15:18:18;3.40;;;1.80;;
48014;SDS011;33780;51.034;7.120;2023-04-01T15:21:16;3.88;;;1.80;;
48014;SDS011;33780;51.034;7.120;2023-04-01T15:26:32;3.90;;;1.85;;
48014;SDS011;33780;51.034;7.120;2023-04-01T15:32:23;3.92;;;1.80;;
48014;SDS011;33780;51.034;7.120;2023-04-01T15:37:56;2.90;;;1.60;;
48014;SDS011;33780;51.034;7.120;2023-04-01T15:40:47;7.30;;;1.42;;
48014;SDS011;33780;51.034;7.120;2023-04-01T15:51:56;4.40;;;1.38;;
48014;SDS011;33780;51.034;7.120;2023-04-01T16:00:55;2.50;;;1.30;;
48014;SDS011;33780;51.034;7.120;2023-04-01T16:03:56;2.35;;;1.27;;
48014;SDS011;33780;51.034;7.120;2023-04-01T16:06:53;2.28;;;1.23;;
48014;SDS011;33780;51.034;7.120;2023-04-01T16:15:44;2.53;;;1.20;;
48014;SDS011;33780;51.034;7.120;2023-04-01T16:23:58;3.30;;;1.55;;
48014;SDS011;33780;51.034;7.120;2023-04-01T16:26:48;3.03;;;1.40;;
48014;SDS011;33780;51.034;7.120;2023-04-01T16:31:52;4.07;;;1.83;;
48014;SDS011;33780;51.034;7.120;2023-04-01T16:34:30;4.55;;;2.00;;
48014;SDS011;33780;51.034;7.120;2023-04-01T16:37:09;4.70;;;2.60;;
48014;SDS011;33780;51.034;7.120;2023-04-01T16:39:43;7.15;;;3.58;;
48014;SDS011;33780;51.034;7.120;2023-04-01T16:45:45;7.97;;;3.47;;
48014;SDS011;33780;51.034;7.120;2023-04-01T16:47:58;5.78;;;2.95;;
48014;SDS011;33780;51.034;7.120;2023-04-01T16:50:39;6.53;;;2.67;;
48014;SDS011;33780;51.034;7.120;2023-04-01T16:55:52;4.57;;;2.10;;
48014;SDS011;33780;51.034;7.120;2023-04-01T17:01:27;6.28;;;2.17;;
48014;SDS011;33780;51.034;7.120;2023-04-01T17:04:06;4.03;;;2.08;;
48014;SDS011;33780;51.034;7.120;2023-04-01T17:06:41;4.80;;;2.05;;
48014;SDS011;33780;51.034;7.120;2023-04-01T17:09:20;5.05;;;2.40;;
48014;SDS011;33780;51.034;7.120;2023-04-01T17:19:40;5.00;;;2.60;;
48014;SDS011;33780;51.034;7.120;2023-04-01T17:22:14;5.03;;;2.58;;
48014;SDS011;33780;51.034;7.120;2023-04-01T17:33:11;6.85;;;3.50;;
48014;SDS011;33780;51.034;7.120;2023-04-01T17:52:11;6.65;;;3.17;;
48014;SDS011;33780;51.034;7.120;2023-04-01T17:57:48;5.68;;;3.00;;
48014;SDS011;33780;51.034;7.120;2023-04-01T18:05:50;5.45;;;3.03;;
48014;SDS011;33780;51.034;7.120;2023-04-01T18:11:12;5.90;;;2.92;;
48014;SDS011;33780;51.034;7.120;2023-04-01T18:14:36;6.25;;;3.00;;
48014;SDS011;33780;51.034;7.120;2023-04-01T18:28:14;3.72;;;2.17;;
48014;SDS011;33780;51.034;7.120;2023-04-01T18:30:41;3.42;;;2.00;;
48014;SDS011;33780;51.034;7.120;2023-04-01T18:33:21;5.18;;;2.00;;
48014;SDS011;33780;51.034;7.120;2023-04-01T18:36:07;4.05;;;2.15;;
48014;SDS011;33780;51.034;7.120;2023-04-01T18:38:44;2.92;;;1.85;;
48014;SDS011;33780;51.034;7.120;2023-04-01T18:41:26;4.82;;;2.30;;
48014;SDS011;33780;51.034;7.120;2023-04-01T18:52:34;5.65;;;3.20;;
48014;SDS011;33780;51.034;7.120;2023-04-01T19:00:25;7.80;;;3.80;;
48014;SDS011;33780;51.034;7.120;2023-04-01T19:03:07;6.53;;;3.50;;
48014;SDS011;33780;51.034;7.120;2023-04-01T19:05:41;5.90;;;2.78;;
48014;SDS011;33780;51.034;7.120;2023-04-01T19:08:17;4.97;;;2.45;;
48014;SDS011;33780;51.034;7.120;2023-04-01T19:10:48;4.03;;;2.25;;
48014;SDS011;33780;51.034;7.120;2023-04-01T19:13:24;3.65;;;2.00;;
48014;SDS011;33780;51.034;7.120;2023-04-01T19:18:55;3.67;;;2.00;;
48014;SDS011;33780;51.034;7.120;2023-04-01T19:21:41;4.72;;;2.08;;
48014;SDS011;33780;51.034;7.120;2023-04-01T19:27:01;4.28;;;2.03;;
48014;SDS011;33780;51.034;7.120;2023-04-01T19:37:51;4.15;;;2.13;;
48014;SDS011;33780;51.034;7.120;2023-04-01T19:40:30;4.15;;;2.30;;
48014;SDS011;33780;51.034;7.120;2023-04-01T19:43:18;3.37;;;1.83;;
48014;SDS011;33780;51.034;7.120;2023-04-01T19:46:03;4.32;;;2.10;;
48014;SDS011;33780;51.034;7.120;2023-04-01T19:48:50;4.30;;;2.17;;
48014;SDS011;33780;51.034;7.120;2023-04-01T19:51:51;3.70;;;1.85;;
48014;SDS011;33780;51.034;7.120;2023-04-01T19:57:17;3.87;;;1.77;;
48014;SDS011;33780;51.034;7.120;2023-04-01T20:00:02;5.05;;;1.70;;
48014;SDS011;33780;51.034;7.120;2023-04-01T20:02:52;3.97;;;1.70;;
48014;SDS011;33780;51.034;7.120;2023-04-01T20:05:44;3.88;;;1.92;;
48014;SDS011;33780;51.034;7.120;2023-04-01T20:10:48;3.60;;;1.58;;
48014;SDS011;33780;51.034;7.120;2023-04-01T20:13:43;3.28;;;1.77;;
48014;SDS011;33780;51.034;7.120;2023-04-01T20:16:16;4.38;;;1.88;;
48014;SDS011;33780;51.034;7.120;2023-04-01T20:18:55;2.70;;;1.52;;
48014;SDS011;33780;51.034;7.120;2023-04-01T20:21:26;3.03;;;1.60;;
48014;SDS011;33780;51.034;7.120;2023-04-01T20:24:01;4.10;;;2.00;;
48014;SDS011;33780;51.034;7.120;2023-04-01T20:26:40;2.70;;;1.50;;
48014;SDS011;33780;51.034;7.120;2023-04-01T20:29:27;3.95;;;1.45;;
48014;SDS011;33780;51.034;7.120;2023-04-01T20:35:00;3.45;;;1.63;;
48014;SDS011;33780;51.034;7.120;2023-04-01T20:37:42;2.83;;;1.45;;
48014;SDS011;33780;51.034;7.120;2023-04-01T20:40:30;2.90;;;1.50;;
48014;SDS011;33780;51.034;7.120;2023-04-01T20:45:28;2.80;;;1.30;;
48014;SDS011;33780;51.034;7.120;2023-04-01T20:50:53;3.00;;;1.30;;
48014;SDS011;33780;51.034;7.120;2023-04-01T20:53:35;2.92;;;1.55;;
48014;SDS011;33780;51.034;7.120;2023-04-01T20:56:13;4.63;;;1.55;;
48014;SDS011;33780;51.034;7.120;2023-04-01T21:04:03;3.45;;;1.55;;
48014;SDS011;33780;51.034;7.120;2023-04-01T21:12:21;3.90;;;1.80;;
48014;SDS011;33780;51.034;7.120;2023-04-01T21:17:44;3.50;;;1.60;;
48014;SDS011;33780;51.034;7.120;2023-04-01T21:37:33;2.45;;;1.42;;
48014;SDS011;33780;51.034;7.120;2023-04-01T21:40:26;4.20;;;1.83;;
48014;SDS011;33780;51.034;7.120;2023-04-01T21:45:50;3.42;;;1.80;;
48014;SDS011;33780;51.034;7.120;2023-04-01T22:05:36;3.47;;;1.80;;
48014;SDS011;33780;51.034;7.120;2023-04-01T22:11:10;3.35;;;1.77;;
48014;SDS011;33780;51.034;7.120;2023-04-01T22:14:03;3.63;;;2.00;;
48014;SDS011;33780;51.034;7.120;2023-04-01T22:17:20;3.60;;;1.73;;
48014;SDS011;33780;51.034;7.120;2023-04-01T22:20:42;3.95;;;2.00;;
48014;SDS011;33780;51.034;7.120;2023-04-01T22:26:14;3.33;;;1.95;;
48014;SDS011;33780;51.034;7.120;2023-04-01T22:31:28;3.40;;;1.70;;
48014;SDS011;33780;51.034;7.120;2023-04-01T22:34:02;3.85;;;1.65;;
48014;SDS011;33780;51.034;7.120;2023-04-01T22:39:33;3.72;;;1.75;;
48014;SDS011;33780;51.034;7.120;2023-04-01T22:45:01;3.88;;;1.90;;
48014;SDS011;33780;51.034;7.120;2023-04-01T22:48:05;4.93;;;2.25;;
48014;SDS011;33780;51.034;7.120;2023-04-01T22:50:44;3.95;;;2.10;;
48014;SDS011;33780;51.034;7.120;2023-04-01T22:53:23;3.50;;;1.83;;
48014;SDS011;33780;51.034;7.120;2023-04-01T22:56:12;3.55;;;1.85;;
48014;SDS011;33780;51.034;7.120;2023-04-01T22:58:54;3.92;;;2.03;;
48014;SDS011;33780;51.034;7.120;2023-04-01T23:01:34;4.15;;;1.95;;
48014;SDS011;33780;51.034;7.120;2023-04-01T23:04:05;3.53;;;1.83;;
48014;SDS011;33780;51.034;7.120;2023-04-01T23:06:33;3.60;;;1.90;;
48014;SDS011;33780;51.034;7.120;2023-04-01T23:09:16;5.53;;;1.80;;
48014;SDS011;33780;51.034;7.120;2023-04-01T23:14:28;3.72;;;1.73;;
48014;SDS011;33780;51.034;7.120;2023-04-01T23:19:46;4.30;;;2.05;;
48014;SDS011;33780;51.034;7.120;2023-04-01T23:22:31;3.25;;;1.55;;
48014;SDS011;33780;51.034;7.120;2023-04-01T23:30:54;4.45;;;1.88;;
48014;SDS011;33780;51.034;7.120;2023-04-01T23:35:52;3.10;;;1.52;;
48014;SDS011;33780;51.034;7.120;2023-04-01T23:38:21;3.85;;;1.38;;
48014;SDS011;33780;51.034;7.120;2023-04-01T23:40:49;3.22;;;1.30;;
48014;SDS011;33780;51.034;7.120;2023-04-01T23:43:22;2.97;;;1.50;;
48014;SDS011;33780;51.034;7.120;2023-04-01T23:45:54;3.55;;;1.52;;
48014;SDS011;33780;51.034;7.120;2023-04-01T23:48:23;3.13;;;1.60;;
48014;SDS011;33780;51.034;7.120;2023-04-01T23:50:55;3.40;;;1.63;;
48014;SDS011;33780;51.034;7.120;2023-04-01T23:53:25;3.55;;;1.50;;
48014;SDS011;33780;51.034;7.120;2023-04-01T23:55:53;4.45;;;1.50;;
48014;SDS011;33780;51.034;7.120;2023-04-01T23:58:24;2.90;;;1.48;;
